默认 日期 大小 文件数 浏览量 最新下载 xml
a-ce磁力链接相关资源由用户搜索指令自动获取,结果来源于网络,本站不存储任何资料,亦不承担任何责任,请于24小时内删除,搜索到334个磁力,用时15ms。
    {"Readme!!.pdf": 8640, "www.MEGAtorrent.co.jpg": 100052, "Dark Romance A Performance To Die For CE.exe": 19018120, "Torrent downloaded from Flashtorrents.org.txt": 40}
创建时间: 2019-03-17 12:20:44 大小:18.24 MB 文件数量:4 热度:3 最近下载:2025-07-21 11:22:01
    {"qqofabd.vzc": {"VIDEO_TS": {"VIDEO_TS.BUP": 8192, "VIDEO_TS.IFO": 8192, "VTS_01_0.BUP": 63488, "VTS_01_0.IFO": 63488, "VTS_01_0.VOB": 94316544, "VTS_01_1.VOB": 1073565696, "VTS_01_2.VOB": 1073565696, "VTS_01_3.VOB": 1073565696, "VTS_01_4.VOB": 1073565696 ...
创建时间: 2019-03-18 04:03:38 大小:8.73 GB 文件数量:12 热度:7 最近下载:2025-03-31 03:59:03
    {"Readme!!.pdf": 8640, "www.MEGAtorrent.co.jpg": 100052, "Dark Romance A Performance To Die For CE.exe": 19018118, "Torrent downloaded from Flashtorrents.org.txt": 40}
创建时间: 2019-03-23 21:53:07 大小:18.24 MB 文件数量:4 热度:5 最近下载:2025-07-21 09:47:01
    {"A la Baise ce Soir (1994) ~ French Classic ~ [RRG]{Brego}.avi": 944978692}
创建时间: 2019-03-27 04:06:58 大小:901.2 MB 文件数量:1 热度:12 最近下载:2025-09-19 00:24:05
    {"Readme!!.pdf": 8640, "www.MEGAtorrent.co.jpg": 100052, "Dark Romance A Performance To Die For CE.exe": 19018120, "Torrent downloaded from Flashtorrents.org.txt": 40}
创建时间: 2019-03-29 04:16:26 大小:18.24 MB 文件数量:4 热度:8 最近下载:2025-07-16 07:13:02
    {"Readme!!.pdf": 8640, "www.MEGAtorrent.co.jpg": 100052, "Dark Romance A Performance To Die For CE.exe": 19018118, "Torrent downloaded from Flashtorrents.org.txt": 40}
创建时间: 2019-03-29 22:01:24 大小:18.24 MB 文件数量:4 热度:6 最近下载:2025-07-15 07:36:02
    {"Torrent downloaded from Demonoid.me.txt": 46, "Death at Fairing Point - A Dana Knightstone Novel CE.exe": 263792602}
创建时间: 2019-03-30 17:41:06 大小:251.57 MB 文件数量:2 热度:8 最近下载:2025-07-30 18:16:03
    {"Readme!!.pdf": 8640, "www.MEGAtorrent.co.jpg": 100052, "Dark Romance A Performance To Die For CE.exe": 19018120, "Torrent downloaded from Flashtorrents.org.txt": 40}
创建时间: 2019-03-31 12:13:38 大小:18.24 MB 文件数量:4 热度:6 最近下载:2025-07-09 10:08:02
    ... .txt": 1049, "Qu'est-ce qu'on a fait au Bon Dieu ... .txt": 75, "Qu'est-ce qu'on a fait au Bon Dieu ... ].zip": 734003549}, "Qu'est-ce qu'on a fait au Bon Dieu ...
创建时间: 2019-04-01 00:11:59 大小:701.07 MB 文件数量:11 热度:7 最近下载:2025-07-10 22:33:02
    {"Readme!!.pdf": 8640, "www.MEGAtorrent.co.jpg": 100052, "Dark Romance A Performance To Die For CE.exe": 19018118, "Torrent downloaded from Flashtorrents.org.txt": 40}
创建时间: 2019-04-01 15:10:00 大小:18.24 MB 文件数量:4 热度:6 最近下载:2025-08-03 23:13:02
    {"A Spoleto Mo ce Sta la Morena Tutto Fa": {"8co73wuvlzdswg0f3f3p.jpg": 134921, "A Spoleto Mo ce Sta la Morena Tutto Fa.mp4": 1237268210, "A Spoleto Mo ce Sta la Morena Tutto Fa.mp4.jpg": 543143, "A Spoleto Mo ce Sta la Morena Tutto Fa.mp4.vtx": 543143}}
创建时间: 2019-04-21 19:55:27 大小:1.15 GB 文件数量:4 热度:16 最近下载:2025-09-15 17:04:01
    {"Torrent downloaded from Demonoid.me.txt": 46, "Voodoo Whisperer - Curse of a Legend CE.rar": 287606548}
创建时间: 2019-04-24 08:45:13 大小:274.28 MB 文件数量:2 热度:5 最近下载:2025-07-07 22:51:01
    {"Death Under Tuscan Skies – A Dana Knightstone Novel CE.exe": 424549604}
创建时间: 2019-05-01 19:45:26 大小:404.88 MB 文件数量:1 热度:5 最近下载:2025-07-23 01:41:01
    {"destroy-bondieu.avi": 734029824, "destroy-bondieu.nfo": 11484}
创建时间: 2019-05-02 22:13:33 大小:700.04 MB 文件数量:2 热度:6 最近下载:2025-08-25 15:43:01
    {"Redist": {"dxwebsetup.exe": 299864, "vcredist_x86.exe": 4129616}, "icon.ico": 69478, "Setup.exe": 25815491, "data1.bin": 20426918, "data2.bin": 1952230135, "data3.bin": 2006550489, "autorun.inf": 41}
创建时间: 2019-05-03 16:48:41 大小:3.73 GB 文件数量:8 热度:22 最近下载:2025-09-19 01:19:05
    ... infos": {"front.jpg": 1479256, "Grâce et grandeurs de la Vierge ... 437360}, "Marc-Antoine Charpentier - Grâce et grandeurs de la Vierge ... , "Marc-Antoine Charpentier - Grâce et grandeurs de la Vierge ... , "Marc-Antoine Charpentier - Grâce et grandeurs de la Vierge ...
创建时间: 2019-05-08 03:32:45 大小:273.87 MB 文件数量:16 热度:8 最近下载:2025-09-16 16:21:07
    {"Qu'est-ce qu'on a fait au Bon Dieu 2014 1080p BluRay DTS x264-HR.mkv": 9823377876, "Qu'est-ce qu'on a fait au Bon Dieu 2014 1080p BluRay DTS x264-HR.srt": 103096}
创建时间: 2019-05-08 06:20:07 大小:9.15 GB 文件数量:2 热度:11 最近下载:2025-07-10 12:34:01
    ... !.html": 462, "Qu'est-ce qu'on a fait au Bon Dieu ... .txt": 75, "Qu'est-ce qu'on a fait au Bon Dieu ... .rar": 734003445}, "Qu'est-ce qu'on a fait au Bon Dieu ...
创建时间: 2019-05-09 01:24:18 大小:701.07 MB 文件数量:13 热度:8 最近下载:2025-07-11 17:22:01
    ... ne sommes pas ce que la science a dit de nous.nfo ... ne sommes pas ce que la science a dit de nous.pdf ... ne sommes pas ce que la science a dit de nous.djvu ...
创建时间: 2019-05-11 03:58:38 大小:12.15 MB 文件数量:4 热度:5 最近下载:2025-07-08 15:07:02
    {"INFO.txt": 2560, "ZAPRASZAM patriota123 -DEVIL-TORRENTS.PL..html": 585, "TANIE NIEZAWODNE KONTO SHELL - SPEEDSHELL.PL.jpg": 229004, "Ce.Que.Le.Jour.Doit.A.La.Nuit.2012.PL.BRRip.XviD-GR4PE.avi": 1469013988}
创建时间: 2019-05-18 20:24:08 大小:1.37 GB 文件数量:4 热度:6 最近下载:2025-07-01 02:14:01